createdAt,value
2023-03-29T01:51:53.833Z,2.61
2023-03-29T01:57:03.279Z,2.55
2023-03-29T02:02:12.221Z,2.57
2023-03-29T02:07:21.199Z,2.58
2023-03-29T02:12:30.348Z,2.58
2023-03-29T02:17:39.934Z,2.59
2023-03-29T02:22:48.560Z,2.51
2023-03-29T02:27:57.025Z,2.59
2023-03-29T03:24:42.455Z,2.52
2023-03-29T03:29:51.566Z,2.54
2023-03-29T03:35:00.772Z,2.54
2023-03-29T03:40:08.585Z,2.63
2023-03-29T03:45:17.663Z,2.58
2023-03-29T03:50:26.119Z,2.58
2023-03-29T03:55:36.573Z,2.58
2023-03-29T04:00:45.044Z,2.56
2023-03-29T04:05:54.178Z,2.58
2023-03-29T04:11:05.214Z,2.6
2023-03-29T04:16:13.248Z,2.6
2023-03-29T04:21:21.605Z,2.66
2023-03-29T04:26:30.624Z,2.67
2023-03-29T04:31:39.310Z,2.69
2023-03-29T04:36:47.602Z,2.57
2023-03-29T04:41:56.055Z,2.67
2023-03-29T04:47:04.557Z,2.68
2023-03-29T04:52:13.705Z,2.66
2023-03-29T04:57:23.300Z,2.73
2023-03-29T05:02:31.473Z,2.67
2023-03-29T05:07:40.406Z,2.63
2023-03-29T05:54:05.018Z,2.71
2023-03-29T05:59:14.773Z,2.69
2023-03-29T06:04:23.511Z,2.72
2023-03-29T06:09:33.049Z,2.74
2023-03-29T06:14:41.488Z,2.62
2023-03-29T06:19:51.923Z,2.7
2023-03-29T06:25:01.003Z,2.62
2023-03-29T06:30:10.795Z,2.63
2023-03-29T06:35:19.929Z,2.58
2023-03-29T07:16:35.639Z,2.68
2023-03-29T07:21:46.477Z,2.76
2023-03-29T07:32:04.766Z,2.74
2023-03-29T07:37:13.844Z,2.79
2023-03-29T07:42:22.982Z,2.68
2023-03-29T07:47:32.344Z,2.77
2023-03-29T07:52:40.557Z,2.68
2023-03-29T07:57:50.482Z,2.75
2023-03-29T08:02:58.934Z,2.71
2023-03-29T08:08:08.555Z,2.68
2023-03-29T08:13:18.286Z,2.77
2023-03-29T08:18:28.081Z,2.71
2023-03-29T08:23:36.568Z,2.84
2023-03-29T08:28:46.955Z,2.78
2023-03-29T08:33:56.710Z,2.84
2023-03-29T08:39:05.839Z,2.79
2023-03-29T08:44:15.621Z,2.96
2023-03-29T09:30:41.991Z,2.97
2023-03-29T09:35:50.277Z,2.98
2023-03-29T09:40:58.449Z,2.98
2023-03-29T09:46:08.014Z,3.09
2023-03-29T10:17:00.018Z,2.93
2023-03-29T10:22:08.863Z,3.11
2023-03-29T10:27:16.670Z,3
2023-03-29T10:32:26.003Z,3.09
2023-03-29T10:37:35.558Z,3.16
2023-03-29T10:42:47.011Z,2.95
2023-03-29T10:47:56.013Z,3
2023-03-29T10:53:06.168Z,3.06
2023-03-29T10:58:16.529Z,2.98
2023-03-29T11:03:26.236Z,3.02
2023-03-29T11:08:34.840Z,3.07
2023-03-29T11:13:43.276Z,3.06
2023-03-29T11:18:51.736Z,3.03
2023-03-29T11:24:01.510Z,3.08
2023-03-29T11:29:11.248Z,3.14
2023-03-29T11:34:19.787Z,3.28
2023-03-29T11:39:29.495Z,3.1
2023-03-29T11:44:39.285Z,3.11
2023-03-29T11:49:14.504Z,3.32
2023-03-29T11:54:30.383Z,3.12
2023-03-29T11:59:40.425Z,3.08
2023-03-29T12:05:02.024Z,3.1
2023-03-29T12:10:11.417Z,3.06
2023-03-29T12:15:33.205Z,3.14
2023-03-29T12:20:48.541Z,3.2
2023-03-29T12:26:04.892Z,3.31
2023-03-29T12:31:20.117Z,3.12
2023-03-29T16:49:06.158Z,3.53
2023-03-29T16:54:21.066Z,3.34
2023-03-29T16:59:37.900Z,3.35
2023-03-29T17:04:53.233Z,3.36
2023-03-29T17:10:07.669Z,3.42
2023-03-29T17:15:23.771Z,3.34
2023-03-29T17:20:38.609Z,3.35
2023-03-29T17:25:54.859Z,3.21
2023-03-29T17:31:10.553Z,3.31
2023-03-29T17:36:26.637Z,3.35
2023-03-29T17:41:41.998Z,3.36
2023-03-29T17:46:58.452Z,3.35
2023-03-29T17:52:14.324Z,3.27
2023-03-29T17:57:32.357Z,3.4
2023-03-29T18:02:48.479Z,3.43
2023-03-29T18:08:03.499Z,3.32
2023-03-29T18:13:18.914Z,3.22
2023-03-29T18:18:34.478Z,3.42
2023-03-29T18:23:57.261Z,3.24
2023-03-29T18:29:10.271Z,3.21
2023-03-29T18:34:22.936Z,3.2
2023-03-29T18:39:37.837Z,3.28
2023-03-29T18:44:53.954Z,3.19
2023-03-29T18:50:08.878Z,3.16
2023-03-29T18:55:25.667Z,3.45
2023-03-29T19:00:40.597Z,3.25
2023-03-29T19:05:56.690Z,3.21
2023-03-29T19:11:11.638Z,3.36
2023-03-29T19:16:27.826Z,3.25
2023-03-29T19:21:42.017Z,3.35
2023-03-29T19:26:58.140Z,3.27
2023-03-29T19:32:13.063Z,3.2
2023-03-29T19:37:27.909Z,3.32
2023-03-29T19:42:44.050Z,3.32
2023-03-29T19:48:04.147Z,3.13
2023-03-29T19:53:13.799Z,3.08
2023-03-29T19:58:29.967Z,3.14
2023-03-29T20:03:46.906Z,3.25
2023-03-29T20:09:01.031Z,3.21
2023-03-29T20:14:17.850Z,3.13
2023-03-29T20:19:33.974Z,3.14
2023-03-29T20:24:50.167Z,3.28
2023-03-29T20:30:05.038Z,3.24
2023-03-29T20:35:19.921Z,3.2
2023-03-29T20:40:34.769Z,3.31
2023-03-29T20:45:54.949Z,3.11
2023-03-29T20:51:06.269Z,3.15
2023-03-29T20:56:21.947Z,3.33
2023-03-29T21:01:37.080Z,3.1
2023-03-29T21:06:53.666Z,3.21
2023-03-29T21:12:09.802Z,3.16
2023-03-29T21:17:24.913Z,3.05
2023-03-29T21:22:46.965Z,3.34
2023-03-29T21:27:57.045Z,3.38
2023-03-29T21:33:13.181Z,3.16
2023-03-29T21:38:28.044Z,3.26
2023-03-29T21:43:43.604Z,3.31
2023-03-29T21:48:59.753Z,3.24
2023-03-29T21:54:15.244Z,3.45
2023-03-29T21:59:31.407Z,3.13
2023-03-29T22:04:47.573Z,3.3
2023-03-29T22:10:03.133Z,3.38
2023-03-29T22:15:18.632Z,3.26
2023-03-29T22:20:35.471Z,3.2
2023-03-29T22:25:50.960Z,3.16
2023-03-29T22:31:07.094Z,3.09
2023-03-29T22:36:23.268Z,3.11
2023-03-29T22:41:37.602Z,3.27
2023-03-29T22:46:53.693Z,3.12
2023-03-29T22:52:09.807Z,3.09
2023-03-29T22:57:26.182Z,3.37
2023-03-29T23:02:41.661Z,3.08
2023-03-29T23:07:57.054Z,3.15
2023-03-29T23:13:11.963Z,3.18
2023-03-29T23:18:29.423Z,3.27
2023-03-29T23:23:46.139Z,3.09
2023-03-29T23:29:01.638Z,3.27
2023-03-29T23:34:17.821Z,3.14
2023-03-29T23:39:35.918Z,3.23
2023-03-29T23:44:50.786Z,3.22
2023-03-29T23:50:06.935Z,3.39
2023-03-29T23:55:22.156Z,3.24
